Webcam 1 more information Webcam 1


Webcam 2 more information Webcam 2


altri nostri siti meteo:

Pomeziameteo 1Sito sul meteo

Pomeziameteo DashboardSito sul meteo

Caput FrigorisSito sul meteo

BarcellonameteoSito sul meteo

MeteoipassiSito sul meteo

ViterbometeoSito sul meteo

MeteotortoretoSito sul meteo

Stazione LineameteoSito sul meteo



Nessuna attenzione particolare richiesta.    Non ci sono allerte meteo

Notice: Undefined offset: 6 in /web/htdocs/www.castelnuovovomanometeo.it/home/weather28/metar/metarDisplay.php on line 76

Notice: Undefined offset: 5 in /web/htdocs/www.castelnuovovomanometeo.it/home/weather28/metar/metarDisplay.php on line 76

Report METAR

   
LIBP - Pescara
Dati ricevuti: 06-06-2020 19:20
Molto nuvoloso  
Molto nuvoloso  
   Vento: NE 9.3 km/h
Vento: NE 9.3 km/h
Temperatura: 23°C
P.to Rugiada: 15°C
Umidita: 61%
Barometro: 1007 hPa
Nuvole: Molto nuvoloso
Visibilita: oltre 10 km
dettagli cloud: Molto nuvoloso 7800 ft
LIBP 061720Z AUTO 05005KT 9999 BKN078/// 23/15 Q1007
LIRZ - Perugia
Dati ricevuti: 06-06-2020 17:50
DATI Obsoleti
Parzialmente nuvoloso  
Parzialmente nuvoloso  
   Vento: West 18.5 km/h
Vento: West 18.5 km/h
Temperatura: 25°C
P.to Rugiada: 14°C
Umidita: 51%
Barometro: 1007 hPa
Nuvole: Parzialmente nuvoloso
Visibilita: oltre 10 km
dettagli cloud: Parzialmente nuvoloso 4000 ft
LIRZ 061550Z 27010KT 9999 SCT040 25/14 Q1007
LIQN - Rieti
Dati ricevuti: 06-06-2020 18:50
Sereno  
Sereno  
   Vento: W 11.1 km/h
Vento: W 11.1 km/h
Temperatura: 24°C
P.to Rugiada: 14°C
Umidita: 54%
Barometro: 1008 hPa
Visibilita: oltre 10 km
dettagli cloud: Sereno
LIQN 061650Z 25006KT CAVOK 24/14 Q1008
LIPY - Falconara
Dati ricevuti: 06-06-2020 19:20
Sereno  
Sereno  
   Vento: SE 7.4 km/h
Vento: SE 7.4 km/h
Temperatura: 25°C
P.to Rugiada: 12°C
Umidita: 44%
Barometro: 1006 hPa
Nuvole: Sereno
Visibilita: oltre 10 km
dettagli cloud: Sereno
LIPY 061720Z AUTO 13004KT 080V170 9999 // NCD 25/12 Q1006
  

Script sviluppato da  Saratoga-weather.org Adattato per il modello da  Weerstation Leuven

Potete trovare le nostre info meteo anche a:

Weather Underground

AWEKAS

Citizen Weather Observer Program (CWOP)

HAMweather, WeatherForYou, PWS Weather

Strumentazione usata:

Stazione meteo
Oregon 928

Programma gestore dati meteo
WVIEW

Server per i dati meteo
Pc-WDS5

Oregon 928

WVIEW

Pc-WDS5